Time;durP1;ratioP1;P1;durP2;ratioP2;P2;SDS_P1;SDS_P2;PMS_P1;PMS_P2;Temp;Humidity;BMP_temperature;BMP_pressure;BME280_temperature;BME280_humidity;BME280_pressure;Samples;Min_cycle;Max_cycle;Signal;HPM_P1;HPM_P2
2023/07/02 00:01:12;;;;;;;3.45;1.98;;;20.00;99.90;;;;;;7383711;19;20137;-74
2023/07/02 00:03:38;;;;;;;4.75;2.08;;;20.00;99.90;;;;;;7387908;19;20427;-73
2023/07/02 00:06:04;;;;;;;2.13;1.80;;;20.00;99.90;;;;;;7383810;19;20231;-75
2023/07/02 00:08:30;;;;;;;2.10;1.90;;;20.10;99.90;;;;;;7385490;19;20222;-74
2023/07/02 00:10:56;;;;;;;2.60;1.95;;;20.20;99.90;;;;;;7383731;19;20134;-75
2023/07/02 00:13:22;;;;;;;2.38;1.80;;;20.10;99.90;;;;;;7383191;19;20139;-75
2023/07/02 00:15:48;;;;;;;2.33;1.77;;;20.20;99.90;;;;;;7384370;19;20143;-75
2023/07/02 00:18:16;;;;;;;1.77;1.67;;;20.20;99.90;;;;;;7384319;19;20143;-75
2023/07/02 00:20:43;;;;;;;3.60;1.85;;;20.20;99.90;;;;;;7384705;19;20130;-74
2023/07/02 00:23:09;;;;;;;2.00;1.80;;;20.20;99.90;;;;;;7382598;19;20157;-75
2023/07/02 00:25:38;;;;;;;3.15;1.65;;;20.10;99.90;;;;;;7388377;19;20126;-74
2023/07/02 00:28:04;;;;;;;2.05;1.70;;;20.20;99.90;;;;;;7389708;19;20139;-75
2023/07/02 00:30:30;;;;;;;2.33;1.90;;;20.00;99.90;;;;;;7390532;19;20182;-76
2023/07/02 00:32:55;;;;;;;2.30;1.90;;;20.20;99.90;;;;;;7389588;19;20129;-75
2023/07/02 00:35:21;;;;;;;2.22;1.75;;;20.20;99.90;;;;;;7391507;19;20134;-76
2023/07/02 00:37:48;;;;;;;3.17;2.13;;;20.10;99.90;;;;;;7391676;19;20248;-75
2023/07/02 00:40:14;;;;;;;1.90;1.70;;;20.20;99.90;;;;;;7389775;19;20137;-75
2023/07/02 00:42:40;;;;;;;1.73;1.60;;;20.20;99.90;;;;;;7385366;19;20565;-75
2023/07/02 00:45:07;;;;;;;2.17;1.60;;;20.20;99.90;;;;;;7387760;19;20131;-75
2023/07/02 00:47:34;;;;;;;2.17;1.98;;;20.20;99.90;;;;;;7388731;19;20163;-75
2023/07/02 00:50:01;;;;;;;4.43;1.80;;;20.10;99.90;;;;;;7390628;19;20157;-75
2023/07/02 00:52:27;;;;;;;1.75;1.55;;;20.10;99.90;;;;;;7388198;19;20170;-75
2023/07/02 00:54:53;;;;;;;1.75;1.63;;;20.10;99.90;;;;;;7389964;19;20158;-75
2023/07/02 00:57:19;;;;;;;2.72;2.00;;;20.10;99.90;;;;;;7389668;19;20149;-75
2023/07/02 00:59:45;;;;;;;2.50;1.50;;;20.10;99.90;;;;;;7389734;19;20465;-75
2023/07/02 01:02:12;;;;;;;2.35;1.55;;;20.10;99.90;;;;;;7389834;19;20139;-76
2023/07/02 01:04:39;;;;;;;1.85;1.50;;;20.10;99.90;;;;;;7390285;19;20147;-76
2023/07/02 01:07:11;;;;;;;5.47;2.00;;;20.10;99.90;;;;;;7389386;19;20158;-75
2023/07/02 01:09:37;;;;;;;3.47;1.70;;;20.10;99.90;;;;;;7389311;19;20189;-75
2023/07/02 01:12:07;;;;;;;2.08;1.63;;;20.10;99.90;;;;;;7387696;19;20147;-76
2023/07/02 01:14:38;;;;;;;2.22;1.42;;;20.10;99.90;;;;;;7388944;19;20158;-76
2023/07/02 01:17:05;;;;;;;2.28;1.52;;;20.20;99.90;;;;;;7387767;19;20146;-74
2023/07/02 01:19:52;;;;;;;2.05;1.40;;;20.10;99.90;;;;;;7390376;19;20141;-77
2023/07/02 01:22:20;;;;;;;2.03;1.48;;;20.10;99.90;;;;;;7389680;19;20173;-76
2023/07/02 01:24:49;;;;;;;2.50;1.58;;;20.10;99.90;;;;;;7390930;19;20639;-76
2023/07/02 01:27:16;;;;;;;2.88;1.52;;;20.10;99.90;;;;;;7387696;19;20150;-76
2023/07/02 01:29:44;;;;;;;2.53;1.58;;;20.10;99.90;;;;;;7390930;19;20130;-76
2023/07/02 01:32:10;;;;;;;2.20;1.65;;;20.10;99.90;;;;;;7386983;19;20131;-76
2023/07/02 01:34:36;;;;;;;1.70;1.58;;;20.00;99.90;;;;;;7390373;19;20162;-76
2023/07/02 01:37:04;;;;;;;2.13;1.45;;;20.00;99.90;;;;;;7386962;19;20131;-76
2023/07/02 01:39:29;;;;;;;1.48;1.30;;;19.90;99.90;;;;;;7389276;19;20671;-75
2023/07/02 01:42:10;;;;;;;2.03;1.45;;;19.90;99.90;;;;;;7384183;19;20138;-77
2023/07/02 01:44:37;;;;;;;3.50;1.40;;;19.90;99.90;;;;;;7389260;19;20147;-76
2023/07/02 01:47:03;;;;;;;3.67;1.42;;;19.90;99.90;;;;;;7385631;19;20174;-76
2023/07/02 01:49:29;;;;;;;2.17;1.63;;;19.90;99.90;;;;;;7387373;19;20139;-76
2023/07/02 01:51:56;;;;;;;2.33;1.40;;;19.90;99.90;;;;;;7386821;19;20561;-76
2023/07/02 01:54:28;;;;;;;2.28;1.50;;;19.90;99.90;;;;;;7388689;19;20426;-76
2023/07/02 01:56:55;;;;;;;1.60;1.40;;;19.90;99.90;;;;;;7388137;19;20131;-75
2023/07/02 01:59:21;;;;;;;2.10;1.90;;;19.90;99.90;;;;;;7389725;19;20131;-75
2023/07/02 02:01:46;;;;;;;2.17;1.60;;;20.00;99.90;;;;;;7389376;19;20125;-76
2023/07/02 02:04:12;;;;;;;4.68;1.33;;;19.90;99.90;;;;;;7386883;19;20147;-76
2023/07/02 02:06:39;;;;;;;2.65;1.60;;;20.00;99.90;;;;;;7388131;19;20172;-76
2023/07/02 02:09:06;;;;;;;3.47;1.60;;;20.00;99.90;;;;;;7388770;19;20283;-76
2023/07/02 02:11:33;;;;;;;2.53;1.60;;;19.90;99.90;;;;;;7381415;19;20134;-76
2023/07/02 02:14:01;;;;;;;1.98;1.40;;;19.90;99.90;;;;;;7388079;19;20139;-76
2023/07/02 02:16:28;;;;;;;4.13;1.80;;;19.90;99.90;;;;;;7386463;19;20146;-77
2023/07/02 02:18:54;;;;;;;3.13;1.50;;;19.90;99.90;;;;;;7389846;19;20134;-76
2023/07/02 02:21:21;;;;;;;1.40;1.30;;;19.90;99.90;;;;;;7389210;19;20152;-76
2023/07/02 02:23:47;;;;;;;2.65;1.50;;;20.00;99.90;;;;;;7389436;19;20202;-76
2023/07/02 02:26:13;;;;;;;2.97;1.48;;;20.00;99.90;;;;;;7386433;19;20131;-76
2023/07/02 02:28:40;;;;;;;1.65;1.50;;;19.90;99.90;;;;;;7390260;19;20471;-76
2023/07/02 02:31:05;;;;;;;1.98;1.42;;;19.90;99.90;;;;;;7386949;19;20480;-75
2023/07/02 02:33:33;;;;;;;1.40;1.30;;;19.80;99.90;;;;;;7386897;19;20139;-76
2023/07/02 02:35:58;;;;;;;1.98;1.58;;;19.80;99.90;;;;;;7387167;19;20194;-76
2023/07/02 02:38:24;;;;;;;1.48;1.38;;;19.80;99.90;;;;;;7388645;19;20130;-76
2023/07/02 02:40:50;;;;;;;1.50;1.30;;;19.90;99.90;;;;;;7386277;19;20141;-76
2023/07/02 02:43:18;;;;;;;1.90;1.50;;;19.90;99.90;;;;;;7387680;19;20134;-76
2023/07/02 02:45:44;;;;;;;2.00;1.40;;;19.90;99.90;;;;;;7385908;19;20503;-77
2023/07/02 02:48:10;;;;;;;1.50;1.30;;;19.90;99.90;;;;;;7386182;19;20131;-76
2023/07/02 02:50:43;;;;;;;1.50;1.40;;;19.90;99.90;;;;;;7387249;19;20155;-75
2023/07/02 02:53:09;;;;;;;3.05;1.70;;;19.90;99.90;;;;;;7388441;19;20161;-76
2023/07/02 02:55:38;;;;;;;1.60;1.50;;;20.00;99.90;;;;;;7384836;19;20150;-76
2023/07/02 02:58:04;;;;;;;2.00;1.52;;;20.00;99.90;;;;;;7383560;19;20155;-77
2023/07/02 03:00:29;;;;;;;2.20;1.50;;;20.00;99.90;;;;;;7381084;19;20126;-76
2023/07/02 03:02:55;;;;;;;3.65;1.40;;;19.90;99.90;;;;;;7386802;19;20240;-76
2023/07/02 03:05:22;;;;;;;4.90;1.88;;;20.00;99.90;;;;;;7385573;19;20146;-76
2023/07/02 03:07:49;;;;;;;4.13;1.80;;;19.90;99.90;;;;;;7387623;19;20599;-77
2023/07/02 03:10:15;;;;;;;2.03;1.52;;;19.90;99.90;;;;;;7381687;19;20204;-76
2023/07/02 03:12:40;;;;;;;2.97;1.20;;;19.90;99.90;;;;;;7382979;19;20150;-76
2023/07/02 03:15:06;;;;;;;3.78;1.95;;;19.80;99.90;;;;;;7386751;19;20161;-75
2023/07/02 03:17:34;;;;;;;2.13;1.60;;;19.80;99.90;;;;;;7386215;19;20206;-76
2023/07/02 03:19:59;;;;;;;2.25;1.30;;;19.70;99.90;;;;;;7385988;19;20130;-76
2023/07/02 03:22:25;;;;;;;2.58;1.75;;;19.70;99.90;;;;;;7386810;19;20550;-76
2023/07/02 03:24:51;;;;;;;1.45;1.35;;;19.80;99.90;;;;;;7385660;19;20142;-75
2023/07/02 03:27:17;;;;;;;1.60;1.50;;;19.60;99.90;;;;;;7385963;19;20242;-76
2023/07/02 03:29:42;;;;;;;1.70;1.55;;;19.40;99.90;;;;;;7388017;19;20130;-76
2023/07/02 03:32:08;;;;;;;3.55;1.70;;;19.30;99.90;;;;;;7383985;19;20142;-76
2023/07/02 03:34:34;;;;;;;2.70;1.73;;;19.40;99.90;;;;;;7386712;19;20157;-74
2023/07/02 03:37:00;;;;;;;1.80;1.48;;;19.40;99.90;;;;;;7386217;19;20122;-74
2023/07/02 03:39:25;;;;;;;4.13;2.00;;;19.40;99.90;;;;;;7385489;19;20139;-74
2023/07/02 03:41:51;;;;;;;2.65;1.77;;;19.20;99.90;;;;;;7386692;19;20201;-74
2023/07/02 03:44:17;;;;;;;2.08;1.70;;;19.10;99.90;;;;;;7384564;19;20149;-74
2023/07/02 03:46:43;;;;;;;2.33;1.80;;;19.10;99.90;;;;;;7383933;19;20178;-75
2023/07/02 03:49:09;;;;;;;4.72;2.15;;;19.10;99.90;;;;;;7384695;19;20147;-73
2023/07/02 03:51:34;;;;;;;4.45;2.30;;;19.10;99.90;;;;;;7385637;19;20135;-74
2023/07/02 03:54:00;;;;;;;3.03;1.70;;;19.10;99.90;;;;;;7384244;19;20193;-74
2023/07/02 03:56:26;;;;;;;3.58;2.03;;;19.10;99.90;;;;;;7385371;19;20139;-75
2023/07/02 03:58:52;;;;;;;3.55;1.60;;;19.00;99.90;;;;;;7386424;19;20130;-74
2023/07/02 04:01:18;;;;;;;3.42;1.92;;;19.00;99.90;;;;;;7390472;19;20142;-74
2023/07/02 04:03:51;;;;;;;3.13;1.80;;;19.00;99.90;;;;;;7392401;19;20134;-75
2023/07/02 04:06:18;;;;;;;4.13;2.22;;;19.10;99.90;;;;;;7390394;19;20131;-74
2023/07/02 04:08:44;;;;;;;2.70;1.88;;;19.10;99.90;;;;;;7392705;19;20163;-74
2023/07/02 04:11:11;;;;;;;2.55;1.73;;;19.00;99.90;;;;;;7390027;19;20174;-75
2023/07/02 04:13:37;;;;;;;4.38;2.00;;;18.90;99.90;;;;;;7393305;19;20135;-74
2023/07/02 04:16:03;;;;;;;2.33;1.77;;;19.00;99.90;;;;;;7393819;19;20595;-75
2023/07/02 04:18:29;;;;;;;4.07;1.95;;;19.10;99.90;;;;;;7390709;19;20135;-75
2023/07/02 04:20:55;;;;;;;2.92;1.90;;;19.10;99.90;;;;;;7391654;19;20157;-75
2023/07/02 04:23:21;;;;;;;4.38;2.45;;;19.10;99.90;;;;;;7392224;19;20142;-74
2023/07/02 04:25:47;;;;;;;4.60;2.00;;;19.10;99.90;;;;;;7390737;19;20135;-74
2023/07/02 04:28:13;;;;;;;5.60;2.95;;;19.00;99.90;;;;;;7389605;19;20163;-75
2023/07/02 04:30:38;;;;;;;6.50;2.20;;;18.90;99.90;;;;;;7393211;19;20131;-74
2023/07/02 04:33:05;;;;;;;4.68;2.22;;;18.90;99.90;;;;;;7390481;19;20141;-74
2023/07/02 04:35:32;;;;;;;5.45;2.50;;;18.90;99.90;;;;;;7390704;19;20209;-74
2023/07/02 04:37:58;;;;;;;4.90;2.30;;;19.00;99.90;;;;;;7390817;19;20161;-75
2023/07/02 04:40:24;;;;;;;4.13;2.15;;;19.00;99.90;;;;;;7392057;19;20142;-75
2023/07/02 04:42:57;;;;;;;3.05;2.17;;;19.00;99.90;;;;;;7391062;19;20139;-76
2023/07/02 04:45:25;;;;;;;3.47;2.38;;;19.10;99.90;;;;;;7389000;19;20137;-75
2023/07/02 04:47:51;;;;;;;3.70;2.35;;;19.20;99.90;;;;;;7392279;19;20141;-76
2023/07/02 04:50:20;;;;;;;6.10;2.50;;;19.10;99.90;;;;;;7391992;19;20148;-75
2023/07/02 04:52:46;;;;;;;3.10;2.22;;;19.10;99.90;;;;;;7388459;19;20170;-75
2023/07/02 04:55:11;;;;;;;3.28;2.30;;;18.90;99.90;;;;;;7390881;19;20591;-76
2023/07/02 04:57:37;;;;;;;5.65;2.00;;;19.00;99.90;;;;;;7388765;19;20579;-76
2023/07/02 05:00:06;;;;;;;5.25;2.80;;;19.00;99.90;;;;;;7390610;19;20138;-75
2023/07/02 05:02:32;;;;;;;4.43;2.20;;;19.00;99.90;;;;;;7389256;19;20150;-76
2023/07/02 05:04:58;;;;;;;5.47;2.42;;;19.10;99.90;;;;;;7390929;19;20613;-75
2023/07/02 05:07:23;;;;;;;3.03;2.10;;;19.00;99.90;;;;;;7389554;19;20214;-75
2023/07/02 05:09:51;;;;;;;3.65;2.20;;;19.00;99.90;;;;;;7390039;19;20642;-76
2023/07/02 05:12:17;;;;;;;4.57;2.28;;;19.10;99.90;;;;;;7387660;19;20158;-75
2023/07/02 05:14:43;;;;;;;3.20;2.05;;;19.20;99.90;;;;;;7390166;19;20636;-76
2023/07/02 05:17:09;;;;;;;5.72;2.30;;;19.20;99.90;;;;;;7389980;19;20135;-77
2023/07/02 05:19:35;;;;;;;3.95;2.10;;;19.10;99.90;;;;;;7391334;19;20138;-76
2023/07/02 05:22:00;;;;;;;3.22;1.77;;;18.80;99.90;;;;;;7390289;19;20146;-76
2023/07/02 05:24:26;;;;;;;3.90;2.10;;;19.00;99.90;;;;;;7390449;19;20163;-76
2023/07/02 05:26:52;;;;;;;5.22;2.30;;;19.10;99.90;;;;;;7389614;19;20157;-76
2023/07/02 05:29:18;;;;;;;3.05;2.70;;;19.20;99.90;;;;;;7389320;19;20139;-74
2023/07/02 05:31:44;;;;;;;3.47;2.17;;;19.10;99.90;;;;;;7388058;19;20137;-75
2023/07/02 05:34:10;;;;;;;4.38;2.35;;;19.30;99.90;;;;;;7388228;19;20138;-76
2023/07/02 05:36:35;;;;;;;7.13;2.80;;;19.50;99.90;;;;;;7387125;19;20131;-76
2023/07/02 05:39:01;;;;;;;4.70;2.60;;;19.50;99.90;;;;;;7387759;19;20154;-76
2023/07/02 05:41:30;;;;;;;5.95;2.83;;;19.50;99.90;;;;;;7389266;19;20209;-76
2023/07/02 05:43:59;;;;;;;5.10;2.35;;;19.60;99.90;;;;;;7387015;19;20130;-76
2023/07/02 05:46:25;;;;;;;4.82;2.33;;;19.50;99.90;;;;;;7386703;19;20182;-75
2023/07/02 05:48:51;;;;;;;3.95;2.47;;;19.60;99.90;;;;;;7387760;19;20607;-76
2023/07/02 05:51:21;;;;;;;4.57;2.40;;;19.60;99.90;;;;;;7386886;19;20131;-75
2023/07/02 05:53:47;;;;;;;5.10;2.50;;;19.60;99.90;;;;;;7388954;19;20206;-76
2023/07/02 05:56:13;;;;;;;6.80;3.05;;;19.60;99.90;;;;;;7388344;19;20135;-75
2023/07/02 05:58:39;;;;;;;3.85;2.75;;;19.60;99.90;;;;;;7389129;19;20142;-76
2023/07/02 06:01:05;;;;;;;4.18;2.72;;;19.60;99.90;;;;;;7386127;19;20595;-76
2023/07/02 06:03:32;;;;;;;4.53;2.25;;;19.60;99.90;;;;;;7387489;19;20143;-76
2023/07/02 06:05:58;;;;;;;5.13;2.67;;;19.70;99.90;;;;;;7388930;19;20174;-76
2023/07/02 06:08:23;;;;;;;6.90;2.83;;;19.70;99.90;;;;;;7387575;19;20516;-75
2023/07/02 06:10:52;;;;;;;6.35;2.90;;;19.90;99.90;;;;;;7386892;19;20231;-78
2023/07/02 06:13:18;;;;;;;4.97;2.95;;;19.90;99.90;;;;;;7387816;19;20147;-77
2023/07/02 06:15:45;;;;;;;8.38;3.20;;;20.00;99.90;;;;;;7389737;19;20147;-75
2023/07/02 06:18:10;;;;;;;6.47;3.05;;;21.10;99.90;;;;;;7385632;19;20147;-76
2023/07/02 06:20:36;;;;;;;6.30;3.58;;;22.70;99.90;;;;;;7389260;19;20138;-76
2023/07/02 06:23:02;;;;;;;5.88;3.42;;;23.70;99.90;;;;;;7384286;19;20145;-77
2023/07/02 06:25:27;;;;;;;6.60;3.45;;;24.00;99.90;;;;;;7386334;19;20140;-76
2023/07/02 06:27:55;;;;;;;6.50;3.63;;;24.80;99.90;;;;;;7388122;19;20131;-77
2023/07/02 06:30:24;;;;;;;7.38;3.83;;;25.90;99.90;;;;;;7387251;19;20239;-76
2023/07/02 06:32:51;;;;;;;6.97;4.50;;;26.60;99.90;;;;;;7385144;19;20157;-76
2023/07/02 06:35:17;;;;;;;8.13;4.25;;;27.10;99.90;;;;;;7386487;19;20153;-76
2023/07/02 06:37:43;;;;;;;5.63;4.05;;;27.40;99.90;;;;;;7385653;19;20145;-77
2023/07/02 06:40:09;;;;;;;7.90;4.60;;;27.30;99.90;;;;;;7385281;19;20163;-77
2023/07/02 06:42:37;;;;;;;7.05;4.18;;;27.50;99.90;;;;;;7386034;19;20155;-76
2023/07/02 06:45:04;;;;;;;6.68;4.70;;;26.30;99.90;;;;;;7386538;19;20131;-76
2023/07/02 06:47:30;;;;;;;12.60;5.25;;;24.30;99.90;;;;;;7381511;19;20182;-76
2023/07/02 06:49:56;;;;;;;8.10;4.50;;;24.20;99.90;;;;;;7386949;19;20157;-77
2023/07/02 06:52:22;;;;;;;9.77;5.18;;;24.10;99.90;;;;;;7384478;19;20606;-78
2023/07/02 06:54:48;;;;;;;9.57;5.30;;;23.70;99.90;;;;;;7383888;19;20135;-74
2023/07/02 06:57:14;;;;;;;9.35;5.13;;;23.30;99.90;;;;;;7381884;19;20150;-75
2023/07/02 06:59:40;;;;;;;8.63;5.22;;;22.70;99.90;;;;;;7387836;19;20443;-75
2023/07/02 07:02:09;;;;;;;10.63;5.40;;;22.50;99.90;;;;;;7385763;19;20134;-74
2023/07/02 07:04:34;;;;;;;9.50;5.05;;;22.70;99.90;;;;;;7387239;19;20234;-75
2023/07/02 07:07:03;;;;;;;12.57;6.07;;;22.50;99.90;;;;;;7384747;19;20619;-75
2023/07/02 07:09:29;;;;;;;13.55;5.82;;;22.40;99.90;;;;;;7386871;19;20130;-76
2023/07/02 07:11:55;;;;;;;8.40;5.78;;;22.00;99.90;;;;;;7383881;19;20158;-75
2023/07/02 07:14:21;;;;;;;10.07;5.35;;;21.80;99.90;;;;;;7385846;19;20134;-75
2023/07/02 07:16:47;;;;;;;8.77;4.95;;;21.60;99.90;;;;;;7386537;19;20135;-75
2023/07/02 07:19:13;;;;;;;13.20;5.88;;;21.50;99.90;;;;;;7385024;19;20161;-76
2023/07/02 07:21:39;;;;;;;10.90;5.60;;;21.30;99.90;;;;;;7386156;19;20756;-75
2023/07/02 07:24:06;;;;;;;9.95;5.40;;;21.40;99.90;;;;;;7385131;19;20165;-76
2023/07/02 07:26:32;;;;;;;13.50;6.15;;;21.60;99.90;;;;;;7384230;19;20222;-77
2023/07/02 07:28:58;;;;;;;11.55;6.03;;;22.20;99.90;;;;;;7374898;19;20146;-77
2023/07/02 07:31:24;;;;;;;12.70;6.65;;;23.30;99.90;;;;;;7386106;19;20551;-75
2023/07/02 07:33:50;;;;;;;9.73;6.40;;;24.30;99.90;;;;;;7384241;19;20554;-75
2023/07/02 07:36:16;;;;;;;11.48;7.07;;;24.40;99.90;;;;;;7384405;19;20130;-79
2023/07/02 07:38:43;;;;;;;12.70;7.03;;;24.20;99.90;;;;;;7384892;19;20206;-74
2023/07/02 07:41:09;;;;;;;12.75;7.93;;;23.50;99.90;;;;;;7384768;19;20210;-75
2023/07/02 07:43:35;;;;;;;11.55;7.50;;;22.60;99.90;;;;;;7385464;19;20171;-74
2023/07/02 07:46:01;;;;;;;12.95;7.60;;;22.50;99.90;;;;;;7382586;19;20248;-74
2023/07/02 07:48:27;;;;;;;14.77;8.35;;;22.60;99.90;;;;;;7386460;19;20142;-75
2023/07/02 07:50:52;;;;;;;10.93;6.80;;;23.40;99.90;;;;;;7387133;19;20134;-74
2023/07/02 07:53:18;;;;;;;17.27;8.40;;;23.60;99.90;;;;;;7385141;19;20613;-75
2023/07/02 07:55:44;;;;;;;14.00;7.50;;;23.50;99.90;;;;;;7383685;19;20138;-75
2023/07/02 07:58:10;;;;;;;12.10;7.03;;;23.50;99.90;;;;;;7384261;19;20146;-75
2023/07/02 08:00:36;;;;;;;15.43;8.70;;;23.90;99.90;;;;;;7382718;19;20210;-74
2023/07/02 08:03:03;;;;;;;12.82;7.28;;;23.90;99.90;;;;;;7383427;19;20158;-75
2023/07/02 08:05:30;;;;;;;13.70;7.25;;;24.20;99.90;;;;;;7383303;19;20898;-75
2023/07/02 08:07:56;;;;;;;14.23;7.68;;;23.90;99.90;;;;;;7385786;19;20615;-74
2023/07/02 08:10:21;;;;;;;15.00;7.68;;;23.60;99.90;;;;;;7384122;19;20218;-74
2023/07/02 08:12:48;;;;;;;13.02;8.25;;;23.60;99.90;;;;;;7382254;19;20135;-74
2023/07/02 08:15:13;;;;;;;12.98;7.93;;;24.00;99.90;;;;;;7383466;19;20558;-75
2023/07/02 08:17:39;;;;;;;16.92;9.00;;;24.50;99.90;;;;;;7385371;19;20166;-74
2023/07/02 08:20:09;;;;;;;15.30;9.77;;;24.50;99.90;;;;;;7384404;19;20147;-76
2023/07/02 08:22:37;;;;;;;15.85;8.95;;;24.30;99.90;;;;;;7381136;19;20179;-75
2023/07/02 08:25:03;;;;;;;15.98;9.20;;;24.20;99.90;;;;;;7383879;19;20146;-77
2023/07/02 08:27:28;;;;;;;13.07;8.25;;;23.60;99.90;;;;;;7383140;19;20130;-75
2023/07/02 08:29:54;;;;;;;13.60;8.50;;;23.40;99.90;;;;;;7383398;19;20150;-77
2023/07/02 08:32:20;;;;;;;12.02;7.95;;;23.60;99.90;;;;;;7381853;19;20176;-75
2023/07/02 08:34:46;;;;;;;13.55;7.90;;;24.20;99.90;;;;;;7382855;19;20145;-75
2023/07/02 08:37:12;;;;;;;13.10;8.07;;;25.00;99.90;;;;;;7383339;19;20198;-75
2023/07/02 08:39:39;;;;;;;14.35;8.27;;;25.60;99.90;;;;;;7382631;19;20173;-75
2023/07/02 08:42:05;;;;;;;14.10;7.78;;;26.10;99.50;;;;;;7383182;19;20135;-75
2023/07/02 08:44:31;;;;;;;12.98;7.90;;;26.20;99.90;;;;;;7381902;19;20171;-75
2023/07/02 08:46:57;;;;;;;11.93;7.45;;;26.50;99.90;;;;;;7388694;19;20527;-75
2023/07/02 08:49:24;;;;;;;16.25;8.50;;;26.50;98.50;;;;;;7391335;19;20219;-76
2023/07/02 08:51:49;;;;;;;14.27;7.68;;;26.30;99.00;;;;;;7389134;19;20222;-75
2023/07/02 08:54:17;;;;;;;13.50;7.90;;;26.10;98.20;;;;;;7386706;19;20179;-75
2023/07/02 08:56:44;;;;;;;14.57;7.80;;;25.80;98.80;;;;;;7389383;19;20147;-74
2023/07/02 08:59:10;;;;;;;11.40;7.07;;;25.70;98.20;;;;;;7389736;19;20201;-75
2023/07/02 09:01:47;;;;;;;10.70;6.95;;;26.00;98.70;;;;;;7387167;19;20541;-75
2023/07/02 09:04:24;;;;;;;9.63;6.28;;;26.10;97.80;;;;;;7381143;19;20785;-75
2023/07/02 09:07:02;;;;;;;10.63;6.75;;;26.00;96.50;;;;;;7385564;19;20142;-76
2023/07/02 09:09:29;;;;;;;11.80;7.10;;;25.60;97.20;;;;;;7389738;19;20138;-74
2023/07/02 09:11:54;;;;;;;9.88;6.55;;;25.90;97.20;;;;;;7384641;19;20143;-76
2023/07/02 09:14:28;;;;;;;11.07;6.50;;;26.00;96.10;;;;;;7391512;19;20958;-75
2023/07/02 09:17:05;;;;;;;9.82;6.85;;;26.10;95.90;;;;;;7389212;19;20146;-75
2023/07/02 09:19:31;;;;;;;12.82;6.60;;;26.10;96.40;;;;;;7389820;19;20862;-73
2023/07/02 09:22:02;;;;;;;9.05;6.68;;;26.30;95.40;;;;;;7389729;19;20150;-75
2023/07/02 09:24:30;;;;;;;12.50;6.63;;;26.30;95.70;;;;;;7387879;19;20478;-75
2023/07/02 09:27:00;;;;;;;8.93;6.70;;;26.00;95.80;;;;;;7389711;19;20563;-75
2023/07/02 09:29:28;;;;;;;13.77;8.07;;;25.70;96.30;;;;;;7386068;19;20146;-75
2023/07/02 09:32:00;;;;;;;11.05;7.07;;;25.30;96.70;;;;;;7387790;19;20606;-75
2023/07/02 09:34:31;;;;;;;12.88;7.28;;;25.30;97.10;;;;;;7387124;19;20153;-75
2023/07/02 09:36:58;;;;;;;12.52;7.25;;;24.90;97.30;;;;;;7387500;19;20147;-74
2023/07/02 09:39:44;;;;;;;16.05;7.82;;;25.10;98.40;;;;;;7388051;19;20138;-76
2023/07/02 09:42:10;;;;;;;11.57;6.50;;;25.40;97.80;;;;;;7387055;19;20147;-75
2023/07/02 09:44:36;;;;;;;11.10;7.30;;;25.70;97.10;;;;;;7388452;19;20177;-76
2023/07/02 09:47:04;;;;;;;11.77;7.25;;;25.70;97.00;;;;;;7386746;19;20185;-76
2023/07/02 09:49:35;;;;;;;11.73;6.20;;;25.70;97.20;;;;;;7386357;19;20143;-74
2023/07/02 09:52:03;;;;;;;13.70;7.13;;;25.40;96.30;;;;;;7386639;19;20149;-75
2023/07/02 09:54:30;;;;;;;10.88;7.45;;;25.10;96.90;;;;;;7385777;19;20138;-75
2023/07/02 09:56:57;;;;;;;13.48;7.57;;;24.70;97.10;;;;;;7386096;19;20165;-75
2023/07/02 09:59:23;;;;;;;11.48;7.22;;;24.40;98.20;;;;;;7388073;19;20173;-75
2023/07/02 10:01:50;;;;;;;19.95;10.88;;;24.30;98.00;;;;;;7386057;19;20147;-75
2023/07/02 10:04:18;;;;;;;10.20;7.38;;;24.40;98.60;;;;;;7388204;19;20146;-76
2023/07/02 10:06:46;;;;;;;13.45;7.88;;;24.70;98.20;;;;;;7387506;19;20210;-76
2023/07/02 10:09:12;;;;;;;10.90;6.90;;;24.90;98.40;;;;;;7389652;19;20165;-75
2023/07/02 10:11:38;;;;;;;11.32;7.18;;;24.90;97.80;;;;;;7385627;19;20142;-75
2023/07/02 10:14:04;;;;;;;11.98;7.60;;;24.80;98.20;;;;;;7385144;19;20169;-75
2023/07/02 10:16:31;;;;;;;11.23;6.43;;;24.50;98.20;;;;;;7386542;19;20528;-75
2023/07/02 10:19:11;;;;;;;12.80;7.45;;;24.50;99.00;;;;;;7386654;19;20610;-75
2023/07/02 10:21:37;;;;;;;12.15;7.35;;;24.80;99.40;;;;;;7389748;19;20156;-74
2023/07/02 10:24:14;;;;;;;11.23;7.18;;;25.30;98.50;;;;;;7384427;19;20214;-74
2023/07/02 10:26:52;;;;;;;10.77;6.75;;;25.60;97.40;;;;;;7388790;19;20598;-74
2023/07/02 10:29:20;;;;;;;11.60;7.40;;;25.30;97.10;;;;;;7388116;19;20147;-74
2023/07/02 10:31:54;;;;;;;12.38;7.43;;;25.00;97.90;;;;;;7386720;19;20147;-75
2023/07/02 10:34:40;;;;;;;13.88;8.27;;;24.80;98.20;;;;;;7381309;19;20135;-76
2023/07/02 10:37:06;;;;;;;11.90;7.95;;;24.10;98.90;;;;;;7380387;19;20173;-77
2023/07/02 10:39:38;;;;;;;12.73;7.55;;;23.80;99.50;;;;;;7380656;19;20502;-76
2023/07/02 10:42:08;;;;;;;12.95;8.40;;;23.40;99.90;;;;;;7383609;19;20485;-76
2023/07/02 10:44:46;;;;;;;10.38;7.10;;;23.20;99.90;;;;;;7384265;19;20156;-76
2023/07/02 10:47:11;;;;;;;14.90;8.50;;;23.40;99.90;;;;;;7381628;19;20657;-76
2023/07/02 10:49:37;;;;;;;11.50;7.53;;;23.50;99.90;;;;;;7385553;19;20146;-75
2023/07/02 10:52:07;;;;;;;14.50;7.93;;;23.60;99.90;;;;;;7385135;19;20134;-76
2023/07/02 10:54:47;;;;;;;13.13;8.23;;;23.50;99.90;;;;;;7385487;19;20166;-76
2023/07/02 10:57:20;;;;;;;13.70;7.82;;;23.80;99.90;;;;;;7385430;19;20168;-75
2023/07/02 10:59:47;;;;;;;12.27;7.68;;;24.00;99.90;;;;;;7386994;19;20143;-75
2023/07/02 11:02:12;;;;;;;12.27;7.85;;;24.20;99.70;;;;;;7385372;19;20154;-75
2023/07/02 11:04:39;;;;;;;11.77;7.75;;;24.20;99.40;;;;;;7385161;19;20152;-76
2023/07/02 11:07:05;;;;;;;12.65;8.05;;;24.20;97.40;;;;;;7384752;19;20158;-75
2023/07/02 11:09:32;;;;;;;12.23;8.00;;;24.30;97.10;;;;;;7384932;19;20156;-80
2023/07/02 11:12:00;;;;;;;14.30;8.32;;;24.30;97.00;;;;;;7385393;19;20139;-76
2023/07/02 11:14:34;;;;;;;14.35;8.27;;;24.50;97.10;;;;;;7385339;19;20651;-76
2023/07/02 11:17:05;;;;;;;12.85;7.55;;;24.60;97.70;;;;;;7386742;19;20122;-76
2023/07/02 11:19:31;;;;;;;13.45;9.00;;;25.00;96.90;;;;;;7386447;19;20141;-75
2023/07/02 11:21:58;;;;;;;13.05;7.63;;;25.10;96.10;;;;;;7386175;19;20209;-76
2023/07/02 11:24:32;;;;;;;13.48;8.32;;;24.80;95.80;;;;;;7386262;19;20618;-76
2023/07/02 11:27:00;;;;;;;14.23;8.43;;;24.90;95.90;;;;;;7385046;19;20158;-77
2023/07/02 11:29:26;;;;;;;13.77;8.25;;;25.00;96.10;;;;;;7384365;19;20135;-75
2023/07/02 11:31:52;;;;;;;13.90;8.35;;;25.00;96.10;;;;;;7385608;19;20133;-76
2023/07/02 11:34:20;;;;;;;12.73;7.72;;;25.20;95.90;;;;;;7386015;19;20205;-74
2023/07/02 11:36:46;;;;;;;12.35;7.75;;;25.00;94.90;;;;;;7385650;19;22679;-76
2023/07/02 11:39:13;;;;;;;15.23;7.97;;;25.10;95.80;;;;;;7384337;19;20150;-76
2023/07/02 11:41:44;;;;;;;12.15;7.72;;;25.00;95.50;;;;;;7388321;19;20134;-76
2023/07/02 11:44:11;;;;;;;11.25;7.63;;;25.00;95.40;;;;;;7384334;19;20131;-76
2023/07/02 11:46:38;;;;;;;13.57;7.88;;;24.90;95.30;;;;;;7385115;19;20574;-76
2023/07/02 11:49:04;;;;;;;11.27;7.18;;;25.00;94.80;;;;;;7384124;19;20146;-76
2023/07/02 11:51:31;;;;;;;12.85;7.75;;;25.10;94.90;;;;;;7386504;19;20138;-75
2023/07/02 11:53:57;;;;;;;13.82;8.15;;;25.10;94.20;;;;;;7382583;19;20154;-75
2023/07/02 11:56:23;;;;;;;12.32;8.20;;;25.10;94.20;;;;;;7384076;19;20126;-75
2023/07/02 11:58:49;;;;;;;12.35;7.63;;;25.00;94.10;;;;;;7383687;19;20209;-75
2023/07/02 12:01:15;;;;;;;12.77;7.82;;;25.00;93.90;;;;;;7385027;19;20134;-76
2023/07/02 12:03:41;;;;;;;11.90;7.40;;;24.90;94.30;;;;;;7384377;19;20150;-77
2023/07/02 12:06:06;;;;;;;11.77;8.00;;;25.10;93.60;;;;;;7383793;19;20170;-76
2023/07/02 12:08:32;;;;;;;11.80;7.85;;;25.00;93.40;;;;;;7385260;19;20135;-76
2023/07/02 12:10:58;;;;;;;12.05;8.13;;;25.10;93.40;;;;;;7383147;19;20134;-75
2023/07/02 12:13:24;;;;;;;13.20;8.27;;;25.30;92.90;;;;;;7384426;19;20143;-76
2023/07/02 12:15:51;;;;;;;11.10;7.55;;;25.40;91.80;;;;;;7384109;19;20166;-75
2023/07/02 12:18:16;;;;;;;14.05;7.88;;;25.50;91.40;;;;;;7382988;19;20138;-77
2023/07/02 12:20:43;;;;;;;13.63;8.93;;;25.70;91.10;;;;;;7388401;19;20142;-76
2023/07/02 12:23:11;;;;;;;12.40;8.00;;;25.70;91.10;;;;;;7390862;19;20150;-77
2023/07/02 12:25:37;;;;;;;11.63;7.80;;;25.70;90.70;;;;;;7390618;19;20146;-76
2023/07/02 12:28:04;;;;;;;10.70;7.80;;;25.50;91.40;;;;;;7390630;19;20123;-76
2023/07/02 12:30:30;;;;;;;15.88;8.70;;;25.50;90.90;;;;;;7393034;19;20606;-78
2023/07/02 12:32:56;;;;;;;12.15;8.48;;;25.60;91.40;;;;;;7388201;19;20141;-76
2023/07/02 12:35:22;;;;;;;14.27;8.68;;;25.60;90.60;;;;;;7390402;19;20450;-77
2023/07/02 12:37:52;;;;;;;13.75;8.65;;;25.50;91.00;;;;;;7389037;19;20626;-76
2023/07/02 12:40:19;;;;;;;12.43;8.20;;;25.60;90.90;;;;;;7390700;19;20165;-77
2023/07/02 12:42:46;;;;;;;12.20;8.23;;;25.80;91.00;;;;;;7391704;19;20594;-76